createdAt,value
2022-09-25T00:00:24.665Z,101421.16
2022-09-25T00:03:28.765Z,101418.44
2022-09-25T00:06:33.035Z,101416.91
2022-09-25T00:09:34.973Z,101417.75
2022-09-25T00:12:36.901Z,101426.78
2022-09-25T00:15:39.029Z,101429.50
2022-09-25T00:19:00.227Z,101424.91
2022-09-25T00:22:02.163Z,101419.00
2022-09-25T00:25:04.496Z,101422.53
2022-09-25T00:28:06.536Z,101418.78
2022-09-25T00:31:10.212Z,101403.25
2022-09-25T00:34:12.452Z,101402.50
2022-09-25T00:37:14.488Z,101402.72
2022-09-25T00:40:16.693Z,101401.00
2022-09-25T00:43:40.027Z,101395.75
2022-09-25T00:46:44.305Z,101395.97
2022-09-25T00:49:47.487Z,101395.97
2022-09-25T00:52:51.644Z,101338.22
2022-09-25T00:55:55.342Z,101391.19
2022-09-25T00:58:57.523Z,101401.19
2022-09-25T01:01:59.972Z,101395.28
2022-09-25T01:05:08.188Z,101383.63
2022-09-25T01:08:14.765Z,101398.56
2022-09-25T01:11:17.464Z,101378.47
2022-09-25T01:14:19.461Z,101399.41
2022-09-25T01:17:34.644Z,101396.50
2022-09-25T01:20:53.438Z,101403.78
2022-09-25T01:24:13.658Z,101405.47
2022-09-25T01:27:46.106Z,101401.75
2022-09-25T01:30:53.009Z,101399.03
2022-09-25T01:34:00.899Z,101381.28
2022-09-25T01:37:47.779Z,101401.56
2022-09-25T01:40:58.585Z,101403.44
2022-09-25T01:44:06.337Z,101402.75
2022-09-25T01:47:12.510Z,101407.81
2022-09-25T01:50:24.114Z,101404.28
2022-09-25T01:53:45.765Z,101400.91
2022-09-25T01:56:55.646Z,101408.84
2022-09-25T02:00:15.882Z,101408.38
2022-09-25T02:03:29.026Z,101410.06
2022-09-25T02:06:32.985Z,101404.84
2022-09-25T02:09:40.981Z,101405.47
2022-09-25T02:12:47.710Z,101409.22
2022-09-25T02:15:55.486Z,101398.22
2022-09-25T02:19:17.431Z,101400.44
2022-09-25T02:22:23.445Z,101398.72
2022-09-25T02:25:35.988Z,101399.75
2022-09-25T02:28:39.256Z,101398.56
2022-09-25T02:31:49.367Z,101388.72
2022-09-25T02:34:52.682Z,101391.75
2022-09-25T02:37:57.165Z,101401.44
2022-09-25T02:41:10.665Z,101406.88
2022-09-25T02:44:29.213Z,101357.84
2022-09-25T02:47:56.688Z,101391.63
2022-09-25T02:51:14.345Z,101389.03
2022-09-25T02:54:31.573Z,101389.03
2022-09-25T02:57:49.212Z,101390.06
2022-09-25T03:00:54.886Z,101383.63
2022-09-25T03:04:00.024Z,101384.66
2022-09-25T03:07:02.500Z,101388.19
2022-09-25T03:10:05.616Z,101384.84
2022-09-25T03:13:17.768Z,101383.63
2022-09-25T03:16:34.585Z,101375.66
2022-09-25T03:19:36.790Z,101340.72
2022-09-25T03:22:38.709Z,101374.00
2022-09-25T03:25:42.798Z,101377.53
2022-09-25T03:28:48.208Z,101380.25
2022-09-25T03:31:50.116Z,101370.13
2022-09-25T03:34:52.091Z,101384.00
2022-09-25T03:37:53.994Z,101376.72
2022-09-25T03:40:56.055Z,101382.97
2022-09-25T03:43:58.871Z,101381.47
2022-09-25T03:47:00.794Z,101343.03
2022-09-25T03:50:02.761Z,101387.91
2022-09-25T03:53:05.271Z,101384.38
2022-09-25T03:56:11.193Z,101381.81
2022-09-25T03:59:13.117Z,101362.44
2022-09-25T04:02:15.088Z,101380.63
2022-09-25T04:05:19.039Z,101385.00
2022-09-25T04:08:20.965Z,101384.16
2022-09-25T04:11:24.587Z,101377.91
2022-09-25T04:14:26.489Z,101379.78
2022-09-25T04:17:29.429Z,101375.56
2022-09-25T04:20:31.420Z,101373.50
2022-09-25T04:23:33.455Z,101373.50
2022-09-25T04:26:35.961Z,101374.16
2022-09-25T04:29:38.036Z,101372.69
2022-09-25T04:33:18.582Z,101375.88
2022-09-25T04:36:20.597Z,101375.00
2022-09-25T04:39:22.587Z,101369.78
2022-09-25T04:42:25.548Z,101374.84
2022-09-25T04:45:28.359Z,101372.28
2022-09-25T04:48:31.304Z,101379.22
2022-09-25T04:51:33.157Z,101384.53
2022-09-25T04:54:35.151Z,101373.88
2022-09-25T04:57:57.683Z,101388.41
2022-09-25T05:01:05.178Z,101387.56
2022-09-25T05:04:08.884Z,101395.50
2022-09-25T05:07:11.182Z,101388.06
2022-09-25T05:10:14.832Z,101390.91
2022-09-25T05:13:16.771Z,101390.91
2022-09-25T05:16:19.867Z,101384.00
2022-09-25T05:19:21.844Z,101388.41
2022-09-25T05:22:23.863Z,101382.13
2022-09-25T05:25:26.756Z,101378.59
2022-09-25T05:28:32.685Z,101384.66
2022-09-25T05:31:34.945Z,101384.84
2022-09-25T05:34:36.929Z,101393.31
2022-09-25T05:37:38.919Z,101396.84
2022-09-25T05:40:40.917Z,101394.13
2022-09-25T05:43:47.626Z,101388.72
2022-09-25T05:46:49.896Z,101388.53
2022-09-25T05:49:51.919Z,101393.63
2022-09-25T05:53:02.046Z,101380.63
2022-09-25T05:56:05.405Z,101377.53
2022-09-25T05:59:07.308Z,101378.88
2022-09-25T06:02:12.641Z,101382.09
2022-09-25T06:05:14.846Z,101386.47
2022-09-25T06:08:16.852Z,101381.91
2022-09-25T06:11:18.720Z,101386.66
2022-09-25T06:14:21.340Z,101388.19
2022-09-25T06:17:23.234Z,101404.28
2022-09-25T06:20:25.509Z,101367.25
2022-09-25T06:23:27.691Z,101389.75
2022-09-25T06:26:29.819Z,101396.00
2022-09-25T06:29:31.937Z,101384.66
2022-09-25T06:32:34.207Z,101400.44
2022-09-25T06:35:40.656Z,101412.50
2022-09-25T06:38:42.618Z,101396.22
2022-09-25T06:41:44.650Z,101397.53
2022-09-25T06:44:46.847Z,101401.00
2022-09-25T06:47:48.861Z,101393.88
2022-09-25T06:50:56.625Z,101391.19
2022-09-25T06:53:59.141Z,101392.00
2022-09-25T06:57:01.185Z,101390.44
2022-09-25T07:00:05.358Z,101386.69
2022-09-25T07:03:25.808Z,101381.03
2022-09-25T07:06:29.059Z,101390.69
2022-09-25T07:09:30.995Z,101393.72
2022-09-25T07:12:33.599Z,101385.19
2022-09-25T07:15:35.686Z,101383.81
2022-09-25T07:18:38.010Z,101381.47
2022-09-25T07:21:40.162Z,101381.47
2022-09-25T07:24:42.110Z,101387.06
2022-09-25T07:27:44.078Z,101381.63
2022-09-25T07:30:48.301Z,101373.84
2022-09-25T07:33:50.418Z,101367.41
2022-09-25T07:36:53.043Z,101377.69
2022-09-25T07:39:55.414Z,101374.63
2022-09-25T07:43:01.397Z,101362.44
2022-09-25T07:46:03.396Z,101371.28
2022-09-25T07:49:05.516Z,101366.34
2022-09-25T07:52:07.476Z,101374.06
2022-09-25T07:55:09.763Z,101366.38
2022-09-25T07:58:12.163Z,101375.66
2022-09-25T08:01:14.335Z,101376.50
2022-09-25T08:04:16.312Z,101362.53
2022-09-25T08:07:18.279Z,101365.91
2022-09-25T08:10:21.196Z,101361.22
2022-09-25T08:13:23.192Z,101364.41
2022-09-25T08:16:25.258Z,101363.03
2022-09-25T08:19:28.045Z,101356.94
2022-09-25T08:22:30.050Z,101352.19
2022-09-25T08:25:32.049Z,101348.44
2022-09-25T08:28:34.363Z,101343.63
2022-09-25T08:31:36.503Z,101347.84
2022-09-25T08:34:41.485Z,101346.44
2022-09-25T08:37:46.176Z,101345.44
2022-09-25T08:41:13.184Z,101337.19
2022-09-25T08:44:24.428Z,101326.13
2022-09-25T08:47:46.494Z,101333.06
2022-09-25T08:50:49.541Z,101333.06
2022-09-25T08:53:51.556Z,101326.34
2022-09-25T08:57:01.609Z,101321.84
2022-09-25T09:00:18.197Z,101324.72
2022-09-25T09:03:24.436Z,101323.69
2022-09-25T09:06:29.708Z,101316.41
2022-09-25T09:09:40.875Z,101305.25
2022-09-25T09:12:51.587Z,101299.72
2022-09-25T09:16:01.695Z,101293.09
2022-09-25T09:19:07.016Z,101293.09
2022-09-25T09:22:14.562Z,101290.47
2022-09-25T09:25:39.427Z,101287.75
2022-09-25T09:29:20.096Z,101280.19
2022-09-25T09:32:41.599Z,101277.94
2022-09-25T09:36:14.569Z,101271.25
2022-09-25T09:39:38.299Z,101269.22
2022-09-25T09:42:49.754Z,101273.06
2022-09-25T09:46:03.077Z,101258.44
2022-09-25T09:49:26.336Z,101254.97
2022-09-25T09:52:42.419Z,101248.50
2022-09-25T09:55:52.860Z,101255.03
2022-09-25T09:58:58.577Z,101263.47
2022-09-25T10:02:18.035Z,101256.16
2022-09-25T10:05:30.297Z,101256.81
2022-09-25T10:08:32.242Z,101237.97
2022-09-25T10:11:34.543Z,101233.66
2022-09-25T10:14:41.211Z,101205.19
2022-09-25T10:17:43.831Z,101209.19
2022-09-25T10:20:48.237Z,101214.25
2022-09-25T10:23:55.325Z,101209.28
2022-09-25T10:27:20.187Z,101194.81
2022-09-25T10:30:22.570Z,101203.88
2022-09-25T10:33:27.606Z,101213.75
2022-09-25T10:36:37.697Z,101202.66
2022-09-25T10:39:45.055Z,101197.06
2022-09-25T10:42:47.304Z,101178.81
2022-09-25T10:46:09.688Z,101179.50
2022-09-25T10:49:37.918Z,101189.09
2022-09-25T10:52:50.262Z,101195.19
2022-09-25T10:55:54.811Z,101181.97
2022-09-25T10:59:01.867Z,101172.16
2022-09-25T11:02:18.028Z,101180.31
2022-09-25T11:05:38.504Z,101175.88
2022-09-25T11:08:42.143Z,101184.47
2022-09-25T11:11:47.068Z,101196.41
2022-09-25T11:14:58.914Z,101182.16
2022-09-25T11:18:01.329Z,101183.19
2022-09-25T11:21:05.812Z,101193.22
2022-09-25T11:24:17.676Z,101185.06
2022-09-25T11:27:24.060Z,101179.44
2022-09-25T11:30:32.484Z,101176.91
2022-09-25T11:33:43.726Z,101181.75
2022-09-25T11:37:04.579Z,101172.59
2022-09-25T11:40:46.367Z,101173.44
2022-09-25T11:44:22.995Z,101168.63
2022-09-25T11:47:40.483Z,101175.22
2022-09-25T11:51:11.571Z,101174.63
2022-09-25T11:54:33.832Z,101165.22
2022-09-25T11:57:51.779Z,101154.59
2022-09-25T12:01:07.089Z,101160.69
2022-09-25T12:04:25.387Z,101157.16
2022-09-25T12:07:40.771Z,101129.69
2022-09-25T12:11:11.567Z,101144.28
2022-09-25T12:14:51.876Z,101143.13
2022-09-25T12:18:07.840Z,101142.91
2022-09-25T12:21:15.322Z,101131.19
2022-09-25T12:24:20.467Z,101129.69
2022-09-25T12:27:31.479Z,101125.09
2022-09-25T12:31:14.644Z,101119.66
2022-09-25T12:34:34.657Z,101114.03
2022-09-25T12:37:43.564Z,101115.53
2022-09-25T12:40:49.214Z,101113.63
2022-09-25T12:44:01.617Z,101121.41
2022-09-25T12:47:27.022Z,101115.75
2022-09-25T12:50:34.282Z,101093.91
2022-09-25T12:53:58.166Z,101105.25
2022-09-25T12:57:19.189Z,101102.09
2022-09-25T13:00:24.215Z,101100.44
2022-09-25T13:03:37.794Z,101096.66
2022-09-25T13:07:00.520Z,101092.66
2022-09-25T13:10:09.977Z,101102.31
2022-09-25T13:13:24.855Z,101100.88
2022-09-25T13:16:26.899Z,101080.97
2022-09-25T13:19:33.418Z,101089.16
2022-09-25T13:22:41.536Z,101082.69
2022-09-25T13:26:09.472Z,101083.72
2022-09-25T13:29:41.348Z,101070.75
2022-09-25T13:32:48.820Z,101060.09
2022-09-25T13:36:07.233Z,101061.75
2022-09-25T13:39:37.031Z,101054.25
2022-09-25T13:42:46.283Z,101046.09
2022-09-25T13:45:50.396Z,101039.59
2022-09-25T13:48:53.191Z,101030.59
2022-09-25T13:51:55.175Z,101035.22
2022-09-25T13:55:18.507Z,101026.41
2022-09-25T13:58:25.871Z,101021.56
2022-09-25T14:01:45.810Z,101031.19
2022-09-25T14:04:48.740Z,101019.22
2022-09-25T14:07:56.182Z,101026.94
2022-09-25T14:11:01.059Z,101030.03
2022-09-25T14:14:10.280Z,101024.81
2022-09-25T14:17:19.053Z,101021.06
2022-09-25T14:20:29.125Z,101013.28
2022-09-25T14:23:33.372Z,101010.56
2022-09-25T14:26:35.313Z,101011.84
2022-09-25T14:29:40.917Z,101007.41
2022-09-25T14:32:56.569Z,101001.94
2022-09-25T14:36:25.933Z,101008.69
2022-09-25T14:39:39.987Z,101007.81
2022-09-25T14:43:13.062Z,101003.63
2022-09-25T14:46:20.100Z,100997.53
2022-09-25T14:49:27.127Z,100984.75
2022-09-25T14:52:32.872Z,100980.59
2022-09-25T14:55:38.411Z,100979.13
2022-09-25T14:58:53.736Z,100973.63
2022-09-25T15:01:55.843Z,100975.97
2022-09-25T15:04:58.965Z,100974.28
2022-09-25T15:08:02.715Z,100969.41
2022-09-25T15:11:11.915Z,100972.13
2022-09-25T15:14:21.523Z,100979.66
2022-09-25T15:17:24.170Z,100972.72
2022-09-25T15:20:31.012Z,100958.72
2022-09-25T15:23:35.354Z,100971.25
2022-09-25T15:26:45.046Z,100963.88
2022-09-25T15:29:48.618Z,100957.00
2022-09-25T15:33:00.753Z,100955.50
2022-09-25T15:36:21.983Z,100951.13
2022-09-25T15:39:26.252Z,100942.53
2022-09-25T15:42:28.398Z,100949.63
2022-09-25T15:45:46.991Z,100952.75
2022-09-25T15:48:57.496Z,100951.25
2022-09-25T15:52:03.077Z,100945.38
2022-09-25T15:55:14.774Z,100964.38
2022-09-25T15:58:19.244Z,100970.03
2022-09-25T16:01:43.653Z,100961.03
2022-09-25T16:04:52.172Z,100962.94
2022-09-25T16:08:36.553Z,100927.28
2022-09-25T16:11:38.871Z,100947.19
2022-09-25T16:14:40.874Z,100949.72
2022-09-25T16:17:43.258Z,100955.16
2022-09-25T16:20:45.913Z,100945.91
2022-09-25T16:24:00.917Z,100945.97
2022-09-25T16:27:04.793Z,100943.66
2022-09-25T16:30:16.322Z,100939.25
2022-09-25T16:33:43.758Z,100936.34
2022-09-25T16:36:47.556Z,100953.50
2022-09-25T16:40:09.654Z,100955.56
2022-09-25T16:43:26.074Z,100952.41
2022-09-25T16:46:29.250Z,100944.03
2022-09-25T16:49:33.835Z,100945.09
2022-09-25T16:52:36.236Z,100908.78
2022-09-25T16:55:47.658Z,100928.94
2022-09-25T16:58:50.087Z,100936.09
2022-09-25T17:02:01.396Z,100929.84
2022-09-25T17:05:16.086Z,100921.25
2022-09-25T17:08:20.873Z,100933.38
2022-09-25T17:11:23.210Z,100921.88
2022-09-25T17:14:27.046Z,100920.84
2022-09-25T17:17:31.119Z,100913.53
2022-09-25T17:20:34.005Z,100915.59
2022-09-25T17:23:36.139Z,100922.09
2022-09-25T17:26:38.740Z,100892.94
2022-09-25T17:29:41.709Z,100918.72
2022-09-25T17:32:44.897Z,100921.25
2022-09-25T17:35:59.571Z,100921.84
2022-09-25T17:39:01.526Z,100923.31
2022-09-25T17:42:04.201Z,100915.56
2022-09-25T17:45:24.921Z,100943.16
2022-09-25T17:48:30.180Z,100940.19
2022-09-25T17:51:32.318Z,100950.66
2022-09-25T17:54:34.394Z,100943.75
2022-09-25T17:57:36.393Z,100944.78
2022-09-25T18:00:38.331Z,100943.38
2022-09-25T18:03:40.282Z,100939.59
2022-09-25T18:06:43.580Z,100934.38
2022-09-25T18:09:45.607Z,100918.38
2022-09-25T18:12:47.625Z,100931.84
2022-09-25T18:15:53.819Z,100941.88
2022-09-25T18:19:14.565Z,100931.84
2022-09-25T18:22:21.904Z,100923.69
2022-09-25T18:25:24.474Z,100925.56
2022-09-25T18:28:26.599Z,100922.63
2022-09-25T18:31:29.888Z,100916.16
2022-09-25T18:34:31.887Z,100922.88
2022-09-25T18:37:33.942Z,100917.81
2022-09-25T18:40:36.039Z,100911.38
2022-09-25T18:43:38.074Z,100910.34
2022-09-25T18:46:40.410Z,100904.91
2022-09-25T18:49:43.196Z,100910.34
2022-09-25T18:52:45.513Z,100913.06
2022-09-25T18:55:47.472Z,100900.69
2022-09-25T18:58:51.822Z,100890.84
2022-09-25T19:01:55.853Z,100897.97
2022-09-25T19:05:00.062Z,100897.81
2022-09-25T19:08:03.573Z,100900.31
2022-09-25T19:11:12.929Z,100898.63
2022-09-25T19:14:16.582Z,100891.72
2022-09-25T19:17:19.278Z,100892.38
2022-09-25T19:20:21.281Z,100887.78
2022-09-25T19:23:25.135Z,100888.63
2022-09-25T19:26:27.525Z,100885.06
2022-09-25T19:29:29.525Z,100882.53
2022-09-25T19:32:31.522Z,100877.53
2022-09-25T19:35:33.505Z,100874.00
2022-09-25T19:38:37.686Z,100882.97
2022-09-25T19:41:41.164Z,100876.91
2022-09-25T19:44:43.926Z,100866.91
2022-09-25T19:47:45.821Z,100867.72
2022-09-25T19:50:48.004Z,100870.84
2022-09-25T19:53:50.732Z,100878.59
2022-09-25T19:56:52.689Z,100885.06
2022-09-25T19:59:55.023Z,100885.44
2022-09-25T20:02:57.165Z,100896.75
2022-09-25T20:06:02.131Z,100891.31
2022-09-25T20:09:05.637Z,100891.53
2022-09-25T20:12:07.853Z,100887.13
2022-09-25T20:15:10.191Z,100895.09
2022-09-25T20:18:12.163Z,100885.44
2022-09-25T20:21:15.429Z,100882.53
2022-09-25T20:24:18.217Z,100875.81
2022-09-25T20:27:23.227Z,100882.75
2022-09-25T20:30:26.833Z,100880.03
2022-09-25T20:33:34.441Z,100883.19
2022-09-25T20:36:37.874Z,100879.81
2022-09-25T20:39:39.987Z,100879.81
2022-09-25T20:42:42.949Z,100869.81
2022-09-25T20:45:45.135Z,100864.38
2022-09-25T20:48:51.201Z,100865.41
2022-09-25T20:51:53.524Z,100858.97
2022-09-25T20:54:56.482Z,100867.28
2022-09-25T20:57:58.839Z,100863.53
2022-09-25T21:01:06.468Z,100852.88
2022-09-25T21:04:10.021Z,100836.50
2022-09-25T21:07:16.761Z,100850.16
2022-09-25T21:10:19.657Z,100862.50
2022-09-25T21:13:21.561Z,100855.19
2022-09-25T21:16:24.759Z,100856.03
2022-09-25T21:19:28.077Z,100844.72
2022-09-25T21:22:30.060Z,100832.44
2022-09-25T21:25:33.345Z,100843.69
2022-09-25T21:28:35.306Z,100843.69
2022-09-25T21:31:39.336Z,100831.16
2022-09-25T21:34:41.336Z,100827.22
2022-09-25T21:37:43.275Z,100823.22
2022-09-25T21:40:45.365Z,100819.25
2022-09-25T21:43:48.312Z,100820.94
2022-09-25T21:46:50.815Z,100810.28
2022-09-25T21:49:54.979Z,100812.97
2022-09-25T21:52:57.063Z,100808.38
2022-09-25T21:56:05.103Z,100808.38
2022-09-25T21:59:09.285Z,100808.38
2022-09-25T22:02:11.559Z,100778.22
2022-09-25T22:05:16.442Z,100807.56
2022-09-25T22:08:18.620Z,100800.84
2022-09-25T22:11:21.706Z,100799.41
2022-09-25T22:14:23.935Z,100793.81
2022-09-25T22:17:25.883Z,100792.09
2022-09-25T22:20:27.870Z,100793.16
2022-09-25T22:23:29.926Z,100785.00
2022-09-25T22:26:35.493Z,100778.09
2022-09-25T22:29:37.468Z,100757.56
2022-09-25T22:32:39.478Z,100777.91
2022-09-25T22:35:41.498Z,100780.81
2022-09-25T22:38:43.509Z,100781.47
2022-09-25T22:41:48.826Z,100781.47
2022-09-25T22:44:50.730Z,100783.13
2022-09-25T22:47:52.859Z,100783.13
2022-09-25T22:51:00.873Z,100784.56
2022-09-25T22:54:02.840Z,100788.56
2022-09-25T22:57:04.773Z,100793.16
2022-09-25T23:00:09.311Z,100790.44
2022-09-25T23:03:11.434Z,100786.66
2022-09-25T23:06:13.364Z,100773.31
2022-09-25T23:09:18.042Z,100775.19
2022-09-25T23:12:20.077Z,100769.94
2022-09-25T23:15:22.233Z,100771.66
2022-09-25T23:18:24.227Z,100768.50
2022-09-25T23:21:27.351Z,100768.28
2022-09-25T23:24:29.628Z,100766.41
2022-09-25T23:27:31.642Z,100777.47
2022-09-25T23:30:33.625Z,100774.94
2022-09-25T23:33:36.686Z,100773.91
2022-09-25T23:36:39.139Z,100769.31
2022-09-25T23:39:41.503Z,100767.63
2022-09-25T23:42:43.490Z,100767.84
2022-09-25T23:45:45.417Z,100773.91
2022-09-25T23:48:48.056Z,100765.13
2022-09-25T23:51:50.199Z,100756.34
2022-09-25T23:54:52.130Z,100763.25
2022-09-25T23:57:54.301Z,100765.97
